SBOSBO GND / TGPY
Speedbird OnlineSpeedbird Online GND / TGPY

Point Salines International Airport
20:16 25°C

Location Point Salines, Grenada
Latitude: 12.004199981689453
Longitude: -61.78620147705078
Web Airport Website | Wikipedia
Altitude 12 Meter / 41 Feet
Distance 7,038 KM / 4,373 Miles
from London.
Time Zone UTC -4 hours (America/Grenada)
Codes IATA: GND
ICAO: TGPY
Currency £1 equals XCD 3.27
Runways
RunwayLength (m)Surface
102744Asphalt
282744Asphalt
Radio
TypeDescriptionFrequency
APPAPP119.4
GNDGND121.9
TWRTWR118.9
Live ATC
METAR TGPY 081400Z 07016KT 9999 FEW017 SCT035 28/24 Q1015 NOSIG
TAF TGPY 081000Z 0812/0912 07016G26KT 9999 FEW018 SCT038
Weather As Of 08 Feb 2023 20:16
Description Broken clouds
Wind 13 km/h from North-East (60°)
Cloud Cover 75%
Precipitation Rain: none, Snow: none
Sunrise 06:30
Sunset 18:11
Lounges IAM Jet Centre, Jet Centre Terminal
Rotations During the last 90 days there were
25 flights from UVF
9 flights from ANU
24 flights to UVF
9 flights to ANU



Support Speedbird Online

© 2017-2023 Speedbird Online